createdAt,value
2018-04-08T00:00:15.968Z,91.90
2018-04-08T00:02:45.095Z,92.20
2018-04-08T00:05:13.482Z,92.20
2018-04-08T00:07:41.856Z,92.20
2018-04-08T00:10:10.241Z,92.40
2018-04-08T00:12:38.603Z,92.50
2018-04-08T00:15:06.955Z,92.70
2018-04-08T00:17:36.280Z,93.10
2018-04-08T00:20:04.635Z,93.10
2018-04-08T00:22:33.760Z,93.10
2018-04-08T00:25:02.119Z,93.10
2018-04-08T00:27:30.480Z,93.10
2018-04-08T00:29:58.830Z,93.10
2018-04-08T00:32:27.227Z,92.70
2018-04-08T00:34:55.768Z,92.40
2018-04-08T00:37:24.112Z,92.30
2018-04-08T00:39:53.285Z,91.50
2018-04-08T00:42:21.723Z,91.40
2018-04-08T00:44:50.112Z,91.10
2018-04-08T00:47:18.494Z,90.90
2018-04-08T00:49:46.844Z,91.10
2018-04-08T00:52:15.200Z,91.40
2018-04-08T00:54:43.564Z,91.80
2018-04-08T00:57:12.009Z,92.20
2018-04-08T00:59:40.374Z,92.40
2018-04-08T01:02:08.803Z,92.70
2018-04-08T01:04:38.008Z,93.20
2018-04-08T01:07:06.340Z,93.20
2018-04-08T01:09:34.700Z,93.20
2018-04-08T01:12:03.036Z,93.20
2018-04-08T01:14:31.400Z,93.10
2018-04-08T01:16:59.746Z,92.80
2018-04-08T01:19:28.316Z,92.60
2018-04-08T01:21:57.440Z,92.10
2018-04-08T01:24:25.835Z,92.00
2018-04-08T01:26:54.351Z,91.90
2018-04-08T01:29:22.646Z,91.80
2018-04-08T01:31:51.028Z,91.50
2018-04-08T01:34:19.438Z,91.30
2018-04-08T01:36:47.788Z,91.40
2018-04-08T01:39:16.226Z,91.80
2018-04-08T01:41:44.603Z,91.60
2018-04-08T01:44:12.944Z,92.00
2018-04-08T01:46:41.321Z,92.00
2018-04-08T01:49:09.706Z,92.70
2018-04-08T01:51:38.080Z,92.70
2018-04-08T01:54:06.469Z,93.10
2018-04-08T01:56:34.825Z,93.20
2018-04-08T01:59:03.242Z,93.50
2018-04-08T02:01:31.639Z,93.80
2018-04-08T02:04:00.085Z,94.00
2018-04-08T02:06:28.595Z,94.30
2018-04-08T02:08:56.950Z,94.40
2018-04-08T02:11:25.314Z,94.50
2018-04-08T02:13:54.643Z,94.80
2018-04-08T02:16:23.113Z,94.60
2018-04-08T02:18:51.474Z,94.60
2018-04-08T02:21:20.405Z,94.50
2018-04-08T02:23:48.751Z,94.40
2018-04-08T02:26:17.273Z,94.40
2018-04-08T02:28:45.704Z,93.90
2018-04-08T02:31:14.320Z,93.70
2018-04-08T02:33:42.695Z,93.30
2018-04-08T02:36:11.040Z,92.80
2018-04-08T02:38:40.216Z,91.80
2018-04-08T02:41:09.349Z,91.90
2018-04-08T02:43:37.771Z,91.40
2018-04-08T02:46:06.139Z,91.70
2018-04-08T02:48:34.518Z,92.20
2018-04-08T02:51:02.866Z,92.60
2018-04-08T02:53:31.365Z,92.90
2018-04-08T02:55:59.761Z,93.50
2018-04-08T02:58:28.107Z,93.80
2018-04-08T03:00:57.319Z,94.50
2018-04-08T03:03:25.719Z,94.40
2018-04-08T03:05:54.073Z,94.60
2018-04-08T03:08:22.516Z,94.60
2018-04-08T03:10:51.649Z,93.60
2018-04-08T03:13:19.991Z,93.50
2018-04-08T03:15:49.125Z,92.70
2018-04-08T03:18:17.499Z,92.70
2018-04-08T03:20:45.988Z,92.30
2018-04-08T03:23:14.349Z,91.90
2018-04-08T03:25:42.695Z,91.50
2018-04-08T03:28:11.061Z,91.10
2018-04-08T03:30:39.428Z,91.70
2018-04-08T03:33:07.797Z,92.40
2018-04-08T03:35:36.152Z,92.90
2018-04-08T03:38:04.604Z,93.30
2018-04-08T03:40:33.769Z,94.00
2018-04-08T03:43:02.320Z,94.00
2018-04-08T03:45:30.672Z,93.90
2018-04-08T03:47:59.040Z,93.90
2018-04-08T03:50:27.386Z,93.40
2018-04-08T03:52:55.743Z,92.70
2018-04-08T03:55:24.104Z,92.40
2018-04-08T03:57:52.537Z,91.90
2018-04-08T04:00:21.436Z,91.90
2018-04-08T04:02:49.780Z,92.10
2018-04-08T04:05:18.237Z,92.40
2018-04-08T04:07:46.579Z,92.90
2018-04-08T04:10:14.931Z,93.60
2018-04-08T04:12:43.287Z,93.60
2018-04-08T04:15:11.664Z,93.70
2018-04-08T04:17:40.048Z,94.20
2018-04-08T04:20:20.480Z,94.40
2018-04-08T04:23:01.500Z,95.30
2018-04-08T04:28:32.442Z,95.40
2018-04-08T04:31:00.796Z,95.50
2018-04-08T04:33:29.900Z,95.80
2018-04-08T04:35:58.262Z,95.80
2018-04-08T04:38:27.351Z,95.50
2018-04-08T04:40:56.609Z,96.10
2018-04-08T04:43:25.047Z,96.00
2018-04-08T04:45:54.143Z,96.90
2018-04-08T04:48:23.347Z,97.00
2018-04-08T04:50:52.476Z,97.00
2018-04-08T04:53:20.815Z,97.00
2018-04-08T04:55:49.951Z,97.10
2018-04-08T04:58:18.293Z,97.10
2018-04-08T05:00:47.392Z,97.30
2018-04-08T05:03:15.764Z,97.30
2018-04-08T05:05:44.895Z,97.30
2018-04-08T05:08:13.384Z,97.30
2018-04-08T05:10:41.718Z,97.50
2018-04-08T05:13:10.821Z,97.40
2018-04-08T05:15:39.961Z,97.20
2018-04-08T05:18:08.384Z,97.20
2018-04-08T05:20:36.813Z,97.60
2018-04-08T05:23:05.140Z,97.60
2018-04-08T05:25:33.645Z,97.70
2018-04-08T05:28:01.942Z,97.50
2018-04-08T05:30:30.333Z,97.30
2018-04-08T05:32:58.699Z,97.20
2018-04-08T05:35:27.065Z,97.30
2018-04-08T05:37:55.480Z,97.10
2018-04-08T05:40:23.985Z,97.20
2018-04-08T05:42:52.357Z,97.30
2018-04-08T05:45:20.700Z,97.40
2018-04-08T05:47:49.077Z,97.10
2018-04-08T05:50:17.473Z,97.30
2018-04-08T05:52:45.844Z,97.20
2018-04-08T05:55:14.179Z,97.10
2018-04-08T05:57:42.525Z,96.90
2018-04-08T06:00:10.976Z,96.10
2018-04-08T06:02:39.334Z,96.20
2018-04-08T06:05:07.677Z,96.30
2018-04-08T06:07:36.036Z,96.50
2018-04-08T06:10:04.418Z,96.10
2018-04-08T06:12:32.784Z,96.30
2018-04-08T06:15:01.154Z,96.60
2018-04-08T06:17:29.535Z,96.70
2018-04-08T06:19:57.899Z,97.00
2018-04-08T06:22:26.271Z,97.10
2018-04-08T06:24:54.689Z,97.00
2018-04-08T06:27:23.769Z,96.90
2018-04-08T06:29:52.154Z,96.90
2018-04-08T06:32:20.511Z,96.80
2018-04-08T06:34:48.875Z,96.90
2018-04-08T06:37:17.979Z,96.60
2018-04-08T06:39:46.346Z,96.50
2018-04-08T06:42:15.619Z,95.60
2018-04-08T06:44:44.035Z,95.60
2018-04-08T06:47:12.508Z,95.40
2018-04-08T06:49:41.648Z,94.60
2018-04-08T06:52:10.049Z,94.50
2018-04-08T06:54:38.393Z,94.30
2018-04-08T06:57:06.784Z,93.90
2018-04-08T06:59:35.143Z,93.90
2018-04-08T07:02:03.541Z,94.00
2018-04-08T07:04:31.901Z,94.20
2018-04-08T07:07:00.239Z,94.10
2018-04-08T07:09:28.680Z,93.90
2018-04-08T07:11:57.178Z,93.70
2018-04-08T07:14:25.533Z,92.20
2018-04-08T07:16:53.894Z,91.20
2018-04-08T07:19:23.013Z,91.30
2018-04-08T07:21:51.356Z,91.20
2018-04-08T07:24:20.484Z,91.50
2018-04-08T07:26:48.848Z,91.50
2018-04-08T07:29:17.224Z,91.40
2018-04-08T07:31:45.577Z,91.10
2018-04-08T07:34:14.116Z,91.40
2018-04-08T07:36:42.453Z,91.20
2018-04-08T07:39:11.572Z,90.90
2018-04-08T07:41:39.937Z,90.90
2018-04-08T07:44:09.113Z,91.50
2018-04-08T07:46:37.428Z,91.50
2018-04-08T07:49:05.961Z,91.30
2018-04-08T07:51:34.381Z,91.10
2018-04-08T07:54:03.485Z,91.20
2018-04-08T07:56:31.909Z,91.20
2018-04-08T07:59:00.280Z,91.80
2018-04-08T08:01:29.542Z,90.60
2018-04-08T08:03:57.900Z,90.50
2018-04-08T08:06:27.021Z,89.30
2018-04-08T08:08:55.390Z,89.30
2018-04-08T08:11:23.726Z,90.90
2018-04-08T08:13:52.085Z,89.40
2018-04-08T08:16:20.499Z,84.00
2018-04-08T08:18:49.632Z,74.80
2018-04-08T08:21:17.984Z,75.20
2018-04-08T08:23:47.100Z,73.60
2018-04-08T08:26:15.450Z,73.60
2018-04-08T08:28:43.888Z,71.30
2018-04-08T08:31:12.345Z,72.60
2018-04-08T08:33:40.675Z,70.70
2018-04-08T08:36:09.119Z,72.40
2018-04-08T08:38:37.505Z,73.10
2018-04-08T08:41:05.875Z,75.70
2018-04-08T08:43:34.298Z,75.60
2018-04-08T08:46:02.789Z,75.30
2018-04-08T08:48:31.150Z,75.50
2018-04-08T08:50:59.616Z,75.50
2018-04-08T08:53:27.976Z,66.70
2018-04-08T08:55:56.821Z,66.30
2018-04-08T08:58:25.178Z,63.80
2018-04-08T09:00:53.518Z,65.50
2018-04-08T09:03:21.872Z,64.10
2018-04-08T09:05:51.034Z,67.10
2018-04-08T09:08:19.411Z,67.10
2018-04-08T09:10:47.761Z,66.40
2018-04-08T09:13:16.294Z,65.20
2018-04-08T09:15:44.794Z,65.70
2018-04-08T09:18:13.168Z,67.50
2018-04-08T09:20:43.107Z,69.20
2018-04-08T09:23:17.161Z,69.20
2018-04-08T09:25:46.050Z,65.40
2018-04-08T09:28:14.434Z,63.20
2018-04-08T09:30:42.775Z,66.40
2018-04-08T09:33:11.133Z,65.20
2018-04-08T09:35:39.509Z,66.70
2018-04-08T09:38:07.897Z,66.80
2018-04-08T09:40:36.248Z,66.90
2018-04-08T09:43:04.680Z,66.30
2018-04-08T09:45:33.094Z,63.90
2018-04-08T09:48:01.539Z,62.90
2018-04-08T09:50:30.022Z,63.90
2018-04-08T09:52:58.396Z,62.30
2018-04-08T09:55:26.752Z,61.30
2018-04-08T10:03:47.810Z,54.50
2018-04-08T10:06:16.211Z,54.50
2018-04-08T10:08:44.577Z,53.50
2018-04-08T10:11:12.934Z,50.70
2018-04-08T10:13:41.351Z,51.00
2018-04-08T10:16:09.897Z,51.60
2018-04-08T10:18:38.233Z,51.10
2018-04-08T10:21:06.597Z,52.70
2018-04-08T10:23:34.948Z,53.10
2018-04-08T10:26:03.356Z,52.40
2018-04-08T10:28:31.716Z,52.10
2018-04-08T10:31:00.122Z,51.40
2018-04-08T10:33:28.650Z,50.60
2018-04-08T10:35:57.884Z,50.90
2018-04-08T10:38:26.245Z,50.40
2018-04-08T10:40:54.659Z,50.60
2018-04-08T10:43:23.121Z,50.30
2018-04-08T10:45:51.479Z,50.10
2018-04-08T10:48:19.858Z,46.60
2018-04-08T10:50:48.972Z,48.00
2018-04-08T10:53:17.350Z,48.00
2018-04-08T10:55:45.869Z,47.00
2018-04-08T10:58:14.276Z,46.10
2018-04-08T11:00:42.604Z,47.30
2018-04-08T11:03:10.983Z,47.30
2018-04-08T11:05:39.364Z,47.80
2018-04-08T11:08:07.744Z,46.80
2018-04-08T11:10:36.092Z,44.20
2018-04-08T11:13:04.450Z,43.40
2018-04-08T11:15:32.888Z,45.00
2018-04-08T11:18:01.259Z,45.20
2018-04-08T11:20:29.620Z,45.40
2018-04-08T11:22:57.963Z,45.30
2018-04-08T11:25:26.328Z,46.00
2018-04-08T11:27:54.777Z,45.50
2018-04-08T11:30:23.152Z,43.60
2018-04-08T11:32:51.547Z,43.70
2018-04-08T11:35:19.918Z,41.90
2018-04-08T11:37:48.284Z,43.80
2018-04-08T11:40:16.666Z,43.60
2018-04-08T11:42:45.256Z,42.10
2018-04-08T11:45:13.626Z,42.60
2018-04-08T11:47:42.188Z,41.60
2018-04-08T11:50:11.370Z,37.90
2018-04-08T11:52:39.755Z,37.90
2018-04-08T11:55:08.873Z,37.20
2018-04-08T11:57:37.286Z,37.00
2018-04-08T12:00:05.639Z,36.60
2018-04-08T12:02:33.989Z,36.30
2018-04-08T12:05:03.139Z,34.70
2018-04-08T12:07:31.496Z,34.70
2018-04-08T12:09:59.874Z,35.10
2018-04-08T12:12:28.266Z,35.70
2018-04-08T12:14:56.689Z,35.00
2018-04-08T12:17:25.063Z,34.00
2018-04-08T12:19:53.521Z,35.00
2018-04-08T12:22:21.923Z,34.20
2018-04-08T12:24:50.462Z,32.90
2018-04-08T12:27:18.820Z,32.30
2018-04-08T12:29:47.197Z,32.40
2018-04-08T12:32:15.573Z,32.40
2018-04-08T12:34:44.717Z,33.50
2018-04-08T12:37:13.087Z,33.50
2018-04-08T12:39:41.511Z,32.00
2018-04-08T12:42:09.892Z,32.20
2018-04-08T12:44:39.789Z,31.30
2018-04-08T12:47:08.132Z,31.30
2018-04-08T12:49:36.513Z,31.50
2018-04-08T12:52:04.917Z,30.70
2018-04-08T12:54:33.292Z,31.50
2018-04-08T12:57:01.650Z,31.50
2018-04-08T12:59:30.059Z,31.70
2018-04-08T13:01:58.530Z,31.20
2018-04-08T13:04:26.914Z,30.00
2018-04-08T13:06:55.280Z,29.70
2018-04-08T13:09:23.779Z,29.50
2018-04-08T13:11:52.181Z,29.60
2018-04-08T13:14:20.534Z,29.20
2018-04-08T13:16:49.017Z,29.50
2018-04-08T13:19:18.204Z,29.70
2018-04-08T13:21:46.693Z,29.70
2018-04-08T13:24:15.056Z,29.20
2018-04-08T13:26:43.473Z,29.10
2018-04-08T13:29:11.978Z,28.70
2018-04-08T13:31:40.420Z,28.80
2018-04-08T13:34:08.932Z,29.30
2018-04-08T13:36:38.143Z,29.00
2018-04-08T13:39:07.796Z,29.00
2018-04-08T13:41:36.164Z,29.10
2018-04-08T13:44:04.513Z,29.40
2018-04-08T13:46:33.673Z,29.60
2018-04-08T13:49:03.277Z,29.60
2018-04-08T13:51:32.428Z,29.50
2018-04-08T13:54:00.943Z,29.50
2018-04-08T13:56:29.275Z,29.00
2018-04-08T13:58:58.448Z,29.50
2018-04-08T14:01:27.094Z,29.50
2018-04-08T14:03:55.539Z,29.30
2018-04-08T14:06:23.886Z,30.00
2018-04-08T14:08:52.251Z,30.00
2018-04-08T14:11:20.644Z,29.60
2018-04-08T14:13:49.890Z,30.60
2018-04-08T14:16:18.295Z,30.00
2018-04-08T14:18:46.643Z,30.50
2018-04-08T14:21:15.024Z,30.50
2018-04-08T14:23:43.367Z,30.60
2018-04-08T14:26:11.883Z,30.40
2018-04-08T14:28:40.351Z,30.60
2018-04-08T14:31:08.802Z,30.30
2018-04-08T14:33:37.155Z,29.80
2018-04-08T14:36:05.529Z,29.50
2018-04-08T14:38:34.027Z,29.80
2018-04-08T14:41:02.421Z,30.70
2018-04-08T14:43:30.809Z,29.90
2018-04-08T14:45:59.203Z,30.00
2018-04-08T14:48:27.549Z,30.00
2018-04-08T14:50:55.913Z,29.70
2018-04-08T14:53:24.312Z,29.90
2018-04-08T14:55:52.787Z,29.80
2018-04-08T14:58:21.203Z,30.00
2018-04-08T15:00:50.346Z,31.40
2018-04-08T15:03:18.749Z,30.90
2018-04-08T15:05:47.140Z,31.70
2018-04-08T15:08:15.534Z,31.30
2018-04-08T15:10:43.989Z,31.80
2018-04-08T15:13:12.491Z,32.60
2018-04-08T15:15:40.848Z,32.60
2018-04-08T15:18:09.452Z,32.80
2018-04-08T15:20:37.981Z,33.30
2018-04-08T15:23:07.137Z,34.10
2018-04-08T15:25:35.606Z,34.00
2018-04-08T15:28:04.195Z,33.70
2018-04-08T15:30:32.856Z,33.80
2018-04-08T15:33:01.962Z,33.80
2018-04-08T15:35:30.341Z,34.20
2018-04-08T15:37:58.797Z,34.70
2018-04-08T15:40:27.275Z,34.60
2018-04-08T15:42:56.628Z,35.80
2018-04-08T15:45:25.154Z,35.30
2018-04-08T15:47:53.586Z,34.90
2018-04-08T15:50:22.102Z,35.60
2018-04-08T15:52:51.301Z,37.60
2018-04-08T15:55:20.469Z,37.30
2018-04-08T15:57:48.973Z,37.20
2018-04-08T16:00:17.362Z,37.80
2018-04-08T16:02:45.833Z,37.80
2018-04-08T16:05:14.186Z,38.40
2018-04-08T16:07:42.548Z,38.20
2018-04-08T16:10:10.984Z,38.40
2018-04-08T16:12:40.289Z,39.40
2018-04-08T16:15:08.670Z,39.40
2018-04-08T16:17:37.117Z,39.70
2018-04-08T16:20:05.499Z,39.50
2018-04-08T16:22:34.248Z,39.30
2018-04-08T16:25:02.668Z,38.80
2018-04-08T16:27:31.025Z,38.50
2018-04-08T16:29:59.373Z,39.60
2018-04-08T16:32:27.748Z,39.90
2018-04-08T16:34:56.099Z,40.00
2018-04-08T16:37:25.388Z,40.20
2018-04-08T16:39:53.938Z,40.20
2018-04-08T16:42:22.320Z,40.50
2018-04-08T16:44:50.684Z,40.90
2018-04-08T16:47:19.049Z,41.10
2018-04-08T16:49:47.425Z,41.80
2018-04-08T16:52:15.776Z,42.00
2018-04-08T16:54:45.715Z,43.20
2018-04-08T16:57:14.085Z,43.10
2018-04-08T16:59:43.346Z,44.70
2018-04-08T17:02:11.844Z,44.60
2018-04-08T17:04:40.305Z,45.70
2018-04-08T17:07:08.645Z,46.50
2018-04-08T17:09:37.008Z,47.00
2018-04-08T17:12:05.369Z,47.90
2018-04-08T17:14:34.487Z,49.80
2018-04-08T17:17:02.905Z,49.70
2018-04-08T17:19:31.248Z,50.80
2018-04-08T17:22:00.115Z,51.50
2018-04-08T17:24:29.441Z,53.40
2018-04-08T17:26:57.817Z,53.40
2018-04-08T17:29:26.361Z,54.30
2018-04-08T17:31:54.753Z,55.20
2018-04-08T17:34:23.908Z,57.70
2018-04-08T17:36:52.595Z,57.70
2018-04-08T17:39:20.974Z,58.40
2018-04-08T17:41:49.317Z,59.30
2018-04-08T17:44:18.394Z,60.40
2018-04-08T17:46:47.542Z,64.30
2018-04-08T17:49:15.962Z,64.30
2018-04-08T17:51:44.781Z,66.50
2018-04-08T17:54:13.306Z,68.80
2018-04-08T17:56:41.689Z,68.90
2018-04-08T17:59:10.266Z,70.40
2018-04-08T18:01:38.682Z,71.50
2018-04-08T18:04:07.229Z,72.90
2018-04-08T18:06:35.597Z,75.20
2018-04-08T18:09:04.034Z,76.90
2018-04-08T18:11:33.174Z,80.70
2018-04-08T18:14:01.539Z,80.50
2018-04-08T18:16:30.049Z,82.10
2018-04-08T18:18:58.459Z,83.30
2018-04-08T18:21:27.715Z,85.80
2018-04-08T18:23:56.076Z,85.70
2018-04-08T18:26:24.794Z,86.60
2018-04-08T18:28:53.186Z,87.20
2018-04-08T18:31:21.604Z,88.00
2018-04-08T18:33:51.093Z,88.70
2018-04-08T18:36:19.429Z,88.60
2018-04-08T18:38:47.798Z,89.50
2018-04-08T18:41:16.403Z,89.30
2018-04-08T18:43:45.287Z,89.70
2018-04-08T18:46:13.690Z,89.90
2018-04-08T18:48:43.611Z,90.00
2018-04-08T18:51:11.973Z,90.00
2018-04-08T18:53:40.334Z,90.10
2018-04-08T18:56:09.016Z,90.10
2018-04-08T18:58:37.459Z,90.00
2018-04-08T19:01:06.020Z,90.10
2018-04-08T19:03:34.375Z,90.40
2018-04-08T19:06:02.730Z,90.70
2018-04-08T19:08:31.140Z,90.20
2018-04-08T19:10:59.521Z,90.00
2018-04-08T19:13:27.930Z,90.00
2018-04-08T19:15:56.300Z,90.10
2018-04-08T19:18:24.757Z,90.50
2018-04-08T19:20:53.177Z,90.40
2018-04-08T19:23:22.589Z,90.50
2018-04-08T19:25:51.920Z,90.50
2018-04-08T19:28:20.346Z,90.70
2018-04-08T19:30:48.845Z,90.80
2018-04-08T19:33:18.007Z,91.20
2018-04-08T19:35:46.420Z,91.10
2018-04-08T19:38:14.836Z,91.40
2018-04-08T19:40:43.922Z,91.70
2018-04-08T19:43:12.299Z,91.70
2018-04-08T19:45:40.700Z,92.00
2018-04-08T19:48:09.073Z,92.10
2018-04-08T19:50:37.909Z,92.20
2018-04-08T19:53:06.407Z,92.40
2018-04-08T19:55:34.831Z,92.60
2018-04-08T19:58:03.849Z,92.80
2018-04-08T20:00:32.538Z,92.90
2018-04-08T20:03:01.894Z,93.20
2018-04-08T20:05:30.437Z,93.20
2018-04-08T20:07:58.816Z,93.50
2018-04-08T20:10:27.398Z,93.50
2018-04-08T20:12:56.171Z,93.60
2018-04-08T20:15:24.688Z,94.20
2018-04-08T20:17:53.097Z,94.00
2018-04-08T20:20:22.460Z,94.50
2018-04-08T20:22:51.047Z,94.50
2018-04-08T20:25:19.430Z,94.60
2018-04-08T20:27:48.604Z,95.70
2018-04-08T20:30:18.289Z,95.70
2018-04-08T20:32:46.805Z,95.30
2018-04-08T20:35:15.743Z,95.20
2018-04-08T20:37:44.120Z,95.10
2018-04-08T20:40:12.523Z,95.00
2018-04-08T20:42:41.033Z,95.10
2018-04-08T20:45:09.410Z,95.40
2018-04-08T20:47:37.830Z,95.40
2018-04-08T20:50:07.020Z,95.60
2018-04-08T20:52:35.363Z,95.60
2018-04-08T20:55:03.720Z,95.70
2018-04-08T20:57:32.094Z,95.70
2018-04-08T21:00:00.472Z,95.80
2018-04-08T21:02:28.878Z,95.90
2018-04-08T21:04:57.242Z,95.90
2018-04-08T21:07:25.795Z,95.90
2018-04-08T21:09:54.192Z,96.00
2018-04-08T21:12:22.574Z,96.20
2018-04-08T21:14:50.970Z,96.00
2018-04-08T21:17:19.611Z,96.20
2018-04-08T21:19:48.818Z,96.20
2018-04-08T21:22:17.200Z,96.20
2018-04-08T21:24:45.599Z,96.40
2018-04-08T21:27:13.985Z,96.50
2018-04-08T21:29:42.423Z,96.50
2018-04-08T21:32:10.773Z,96.50
2018-04-08T21:34:39.330Z,96.60
2018-04-08T21:37:07.702Z,96.70
2018-04-08T21:39:36.112Z,96.70
2018-04-08T21:42:04.490Z,96.80
2018-04-08T21:44:32.846Z,96.90
2018-04-08T21:47:01.234Z,97.00
2018-04-08T21:49:29.681Z,97.20
2018-04-08T21:51:58.028Z,97.10
2018-04-08T21:54:26.505Z,97.30
2018-04-08T21:56:54.865Z,97.10
2018-04-08T21:59:23.226Z,97.50
2018-04-08T22:01:51.593Z,97.50
2018-04-08T22:04:20.139Z,97.60
2018-04-08T22:06:48.506Z,97.50
2018-04-08T22:09:16.860Z,97.60
2018-04-08T22:11:45.240Z,97.50
2018-04-08T22:14:13.774Z,97.80
2018-04-08T22:16:42.973Z,98.20
2018-04-08T22:19:12.089Z,98.00
2018-04-08T22:21:40.497Z,98.00
2018-04-08T22:24:09.003Z,98.00
2018-04-08T22:26:37.405Z,97.90
2018-04-08T22:29:05.776Z,98.10
2018-04-08T22:31:34.162Z,98.30
2018-04-08T22:34:02.576Z,98.20
2018-04-08T22:36:30.995Z,98.20
2018-04-08T22:38:59.348Z,98.00
2018-04-08T22:41:27.754Z,98.10
2018-04-08T22:43:56.383Z,97.80
2018-04-08T22:46:24.742Z,98.00
2018-04-08T22:48:53.922Z,98.20
2018-04-08T22:51:22.303Z,98.10
2018-04-08T22:53:50.709Z,98.10
2018-04-08T22:56:19.137Z,98.30
2018-04-08T22:58:47.505Z,98.40
2018-04-08T23:01:15.986Z,98.50
2018-04-08T23:03:44.388Z,98.60
2018-04-08T23:06:12.774Z,98.60
2018-04-08T23:08:42.046Z,98.70
2018-04-08T23:11:10.865Z,98.80
2018-04-08T23:13:39.620Z,98.70
2018-04-08T23:16:08.546Z,98.70
2018-04-08T23:18:37.018Z,98.70
2018-04-08T23:21:05.533Z,98.80
2018-04-08T23:23:34.347Z,98.80
2018-04-08T23:26:03.754Z,98.90
2018-04-08T23:28:32.680Z,98.90
2018-04-08T23:31:01.059Z,98.90
2018-04-08T23:33:29.724Z,99.10
2018-04-08T23:35:58.112Z,99.10
2018-04-08T23:38:27.255Z,99.00
2018-04-08T23:40:55.629Z,98.90
2018-04-08T23:43:24.104Z,99.00
2018-04-08T23:45:52.840Z,99.00
2018-04-08T23:48:21.377Z,99.10
2018-04-08T23:50:50.488Z,99.00
2018-04-08T23:53:19.619Z,99.20
2018-04-08T23:55:48.267Z,99.20
2018-04-08T23:58:17.004Z,99.20
